Terminal Aerodrome Forecast
Issued by NWS Grand Forks, ND

Home | Current Version | Previous Version | Text Only | Print | Product List | Glossary On
Versions: 1 2 3 4 5 6 7 8 9 10 11 12 13 14
000
FTUS43 KFGF 061100
TAFFAR
TAF
KFAR 061120Z 0612/0712 14011KT P6SM OVC010
     FM061900 14014G23KT P6SM -RA BKN035
     FM070400 15011KT P6SM VCSH OVC025=

USA.gov is the U.S. government's official web portal to all federal, state and local government web resources and services.